createdAt,value
2023-03-23T15:58:27.971Z,6.10
2023-03-23T16:00:54.854Z,3.80
2023-03-23T16:03:27.103Z,4.40
2023-03-23T16:05:59.265Z,4.70
2023-03-23T16:08:26.007Z,3.80
2023-03-23T16:10:52.400Z,8.10
2023-03-23T16:13:18.844Z,7.40
2023-03-23T16:15:46.300Z,6.60
2023-03-23T16:18:17.473Z,7.30
2023-03-23T16:20:43.787Z,7.80
2023-03-23T16:23:10.352Z,10.30
2023-03-23T16:25:38.137Z,7.10
2023-03-23T16:28:08.772Z,5.70
2023-03-23T16:30:35.709Z,4.60
2023-03-23T16:33:02.309Z,3.60
2023-03-23T16:35:28.730Z,3.90
2023-03-23T16:38:06.967Z,4.00
2023-03-23T16:40:36.264Z,3.90
2023-03-23T16:43:09.175Z,4.60
2023-03-23T16:45:37.170Z,4.20
2023-03-23T16:48:04.662Z,5.40
2023-03-23T16:50:31.569Z,7.70
2023-03-23T16:52:58.686Z,8.80
2023-03-23T16:55:26.562Z,12.80
2023-03-23T16:57:58.158Z,28.10
2023-03-23T17:00:32.191Z,16.10
2023-03-23T17:02:59.383Z,13.40
2023-03-23T17:05:27.591Z,15.60
2023-03-23T17:07:55.298Z,22.10
2023-03-23T17:10:22.682Z,18.30
2023-03-23T17:12:49.177Z,12.40
2023-03-23T17:15:15.752Z,8.80
2023-03-23T17:17:42.258Z,8.40
2023-03-23T17:20:09.377Z,9.30
2023-03-23T17:22:36.550Z,10.50
2023-03-23T17:25:03.065Z,5.60
2023-03-23T17:27:29.791Z,4.90
2023-03-23T17:29:56.569Z,7.10
2023-03-23T17:32:23.955Z,7.20
2023-03-23T17:34:50.852Z,6.60
2023-03-23T17:37:18.547Z,7.10
2023-03-23T17:39:46.916Z,6.00
2023-03-23T17:42:14.753Z,6.20
2023-03-23T17:44:41.419Z,4.40
2023-03-23T17:47:07.841Z,8.60
2023-03-23T17:49:34.845Z,13.60
2023-03-23T17:52:01.450Z,8.70
2023-03-23T17:54:30.891Z,8.30
2023-03-23T17:56:58.109Z,9.70
2023-03-23T17:59:25.426Z,11.40
2023-03-23T18:04:20.238Z,21.10
2023-03-23T18:06:49.201Z,13.40
2023-03-23T18:09:16.477Z,11.20
2023-03-23T18:11:42.826Z,12.00
2023-03-23T18:14:09.372Z,13.60
2023-03-23T18:16:36.734Z,20.90
2023-03-23T18:19:03.088Z,25.10
2023-03-23T18:21:29.710Z,28.50
2023-03-23T18:23:59.590Z,18.90
2023-03-23T18:26:27.311Z,15.70
2023-03-23T18:28:55.760Z,11.30
2023-03-23T18:31:22.474Z,15.90
2023-03-23T18:33:50.127Z,12.90
2023-03-23T18:36:18.528Z,12.50
2023-03-23T18:38:45.717Z,8.10
2023-03-23T18:41:13.545Z,9.70
2023-03-23T18:46:06.767Z,8.90
2023-03-23T18:48:34.155Z,10.90
2023-03-23T18:51:02.069Z,8.80
2023-03-23T18:53:29.428Z,9.00
2023-03-23T18:56:05.460Z,9.70
2023-03-23T18:58:32.228Z,8.70
2023-03-23T19:01:01.400Z,8.60
2023-03-23T19:03:29.099Z,9.80
2023-03-23T19:05:59.752Z,11.20
2023-03-23T19:08:27.803Z,10.50
2023-03-23T19:11:00.490Z,12.30
2023-03-23T19:13:35.233Z,13.00
2023-03-23T19:16:03.719Z,13.30
2023-03-23T19:18:30.681Z,21.60
2023-03-23T19:23:28.120Z,40.60
2023-03-23T19:25:54.903Z,42.10
2023-03-23T19:29:05.436Z,23.50
2023-03-23T19:31:08.006Z,25.80
2023-03-23T19:33:34.997Z,23.40
2023-03-23T19:36:10.232Z,14.20
2023-03-23T19:38:40.404Z,11.70
2023-03-23T19:46:01.558Z,19.50
2023-03-23T19:50:57.002Z,11.20
2023-03-23T19:55:50.816Z,8.60
2023-03-23T19:58:18.722Z,7.10
2023-03-23T20:03:13.401Z,6.10
2023-03-23T20:05:41.412Z,7.80
2023-03-23T20:08:09.701Z,9.60
2023-03-23T20:10:37.224Z,9.70
2023-03-23T20:15:32.719Z,7.30
2023-03-23T20:18:01.344Z,10.30
2023-03-23T20:20:28.218Z,8.30
2023-03-23T20:22:57.878Z,8.00
2023-03-23T20:25:25.886Z,8.30
2023-03-23T20:27:55.007Z,8.20
2023-03-23T20:30:22.927Z,11.60
2023-03-23T20:32:53.838Z,8.50
2023-03-23T20:35:22.048Z,9.10
2023-03-23T20:37:50.184Z,9.80
2023-03-23T20:40:18.169Z,8.80
2023-03-23T20:43:05.794Z,8.40
2023-03-23T20:45:32.490Z,16.30
2023-03-23T20:48:05.681Z,15.80
2023-03-23T20:50:35.729Z,13.70
2023-03-23T20:53:03.369Z,14.20
2023-03-23T20:55:30.953Z,21.00
2023-03-23T20:57:58.528Z,22.10
2023-03-23T21:00:25.145Z,18.40
2023-03-23T21:02:53.456Z,17.50
2023-03-23T21:05:20.827Z,16.40
2023-03-23T21:07:49.126Z,16.40
2023-03-23T21:10:17.583Z,16.10
2023-03-23T21:12:45.260Z,13.70
2023-03-23T21:15:11.961Z,13.80
2023-03-23T21:17:38.517Z,14.10
2023-03-23T21:20:07.338Z,17.90
2023-03-23T21:22:35.221Z,16.80
2023-03-23T21:25:02.060Z,13.40
2023-03-23T21:27:28.589Z,15.30
2023-03-23T21:29:59.534Z,15.20
2023-03-23T21:32:26.187Z,15.00
2023-03-23T21:34:53.137Z,15.10
2023-03-23T21:37:19.865Z,13.40
2023-03-23T21:39:46.485Z,15.40
2023-03-23T21:42:13.307Z,12.70
2023-03-23T21:44:42.627Z,28.30
2023-03-23T21:47:12.436Z,22.40
2023-03-23T21:49:40.459Z,24.30
2023-03-23T21:52:07.777Z,19.60
2023-03-23T21:54:34.091Z,20.50
2023-03-23T21:57:00.903Z,16.60
2023-03-23T21:59:27.815Z,12.30
2023-03-23T22:01:57.345Z,10.40
2023-03-23T22:04:24.227Z,9.50
2023-03-23T22:06:50.965Z,10.40
2023-03-23T22:09:17.813Z,11.20
2023-03-23T22:11:44.594Z,10.70
2023-03-23T22:14:12.363Z,12.10
2023-03-23T22:16:38.976Z,12.30
2023-03-23T22:19:06.070Z,12.30
2023-03-23T22:21:32.751Z,11.50
2023-03-23T22:24:00.088Z,12.10
2023-03-23T22:28:54.217Z,10.70
2023-03-23T22:31:22.958Z,9.60
2023-03-23T22:33:51.859Z,12.40
2023-03-23T22:36:18.478Z,14.40
2023-03-23T22:38:46.566Z,11.20
2023-03-23T22:41:24.481Z,8.60
2023-03-23T22:43:50.928Z,10.40
2023-03-23T22:46:17.604Z,11.70
2023-03-23T22:48:44.901Z,10.00
2023-03-23T22:51:11.983Z,9.10
2023-03-23T22:53:38.355Z,9.40
2023-03-23T22:56:06.563Z,14.10
2023-03-23T22:58:34.235Z,20.20
2023-03-23T23:01:02.373Z,13.60
2023-03-23T23:03:29.619Z,20.60
2023-03-23T23:05:57.167Z,20.90
2023-03-23T23:10:53.835Z,14.20
2023-03-23T23:13:20.346Z,10.30
2023-03-23T23:15:48.705Z,9.80
2023-03-23T23:18:15.865Z,9.50
2023-03-23T23:20:43.489Z,15.80
2023-03-23T23:23:10.152Z,17.60
2023-03-23T23:25:36.675Z,23.70
2023-03-23T23:28:04.358Z,20.20
2023-03-23T23:30:32.172Z,15.10
2023-03-23T23:32:59.049Z,17.40
2023-03-23T23:35:26.051Z,13.50
2023-03-23T23:37:53.209Z,12.00
2023-03-23T23:40:21.092Z,9.90
2023-03-23T23:42:48.772Z,8.90
2023-03-23T23:45:15.786Z,8.00
2023-03-23T23:47:42.913Z,9.40
2023-03-23T23:50:10.911Z,12.80
2023-03-23T23:52:38.118Z,9.90
2023-03-23T23:57:32.407Z,10.00
